Etusivu
METAR-TAF:

METAR-TAF

Lentoasemat :

Baker City, Oregon, Yhdysvallat

Leveyspiiri: 44-50-14N, Pituuspiiri: 117-48-33W, korkeus merenpinnasta: 1028 m

Tämänhetkinen sää

Tämä raportti tehtiin 29 minuuttia sitten, kello 17.53 UTC
tyyntä
Lämpötila 8°C
Kosteus 53%
Ilmanpaine 1022 hPa
Näkyvyys: 16.1 km
Pilvistä 4100 ft:n korkeudessa

METAR: KBKE 131753Z AUTO 00000KT 10SM OVC041 08/M01 A3019 RMK AO2 SLP234 T00781011 10078 21028 51008

Aika: 10:22 (18:22 UTC)

Sääennuste

Tämä raportti tehtiin 1 tunti ja 2 minuuttia sitten, kello 17.20 UTC
Ennuste voimassa 13. päivästä klo 18 UTC - 14. päivään klo 18 UTC
Tuuli kn pohjoisesta
Näkyvyys: 10 km
Pilvistä 3500 ft:n korkeudessa
From 13. päivästä klo 2000 UTC
Tuuli 4 kn eri suunnista
Näkyvyys: 10 km
Hajanaisia pilviä 3500 ft:n korkeudessa
Hajanaisia pilviä 15000 ft:n korkeudessa

TAF: KBKE 131720Z 1318/1418 00000KT P6SM OVC035 FM132000 VRB04KT P6SM SCT035 SCT150

Säähavainnot ja -ennusteet yli 4000 lentoasemalta (METAR- ja TAF-raportit).

Käytössä olevat sääasemat on merkitty karttaan keltaisilla ja punaisilla pisteillä.

Aseta hiiri pisteen päälle nähdäksesi sääaseman nimen.

Klikkaa sitten nähdäksesi säähavainnot ja -ennusteet.

Kartan vaihtaminen: klikkaa mustalla rastilla varustettuja vihreitä pisteitä, niin voit zoomata sisään; viivalla varustettua vihreää pistettä, niin voit zoomata ulos tai vihreitä nuolia, niin pääset viereisille kartoille.


METAR-TAF: